sensor_id;sensor_type;location;lat;lon;timestamp;temperature;humidity
20479;DHT22;10398;52.490;13.434;2023-09-19T00:00:31;18.90;99.90
20479;DHT22;10398;52.490;13.434;2023-09-19T00:02:59;18.90;99.90
20479;DHT22;10398;52.490;13.434;2023-09-19T00:05:25;18.80;99.90
20479;DHT22;10398;52.490;13.434;2023-09-19T00:07:54;18.80;99.90
20479;DHT22;10398;52.490;13.434;2023-09-19T00:10:21;18.80;99.90
20479;DHT22;10398;52.490;13.434;2023-09-19T00:12:56;18.80;99.90
20479;DHT22;10398;52.490;13.434;2023-09-19T00:15:26;18.70;99.90
20479;DHT22;10398;52.490;13.434;2023-09-19T00:17:54;18.80;99.90
20479;DHT22;10398;52.490;13.434;2023-09-19T00:20:20;18.80;99.90
20479;DHT22;10398;52.490;13.434;2023-09-19T00:22:49;18.80;99.90
20479;DHT22;10398;52.490;13.434;2023-09-19T00:25:19;18.80;99.90
20479;DHT22;10398;52.490;13.434;2023-09-19T00:27:45;18.70;99.90
20479;DHT22;10398;52.490;13.434;2023-09-19T00:30:15;18.70;99.90
20479;DHT22;10398;52.490;13.434;2023-09-19T00:32:47;18.70;99.90
20479;DHT22;10398;52.490;13.434;2023-09-19T00:35:14;18.60;99.90
20479;DHT22;10398;52.490;13.434;2023-09-19T00:37:41;18.60;99.90
20479;DHT22;10398;52.490;13.434;2023-09-19T00:40:10;18.60;99.90
20479;DHT22;10398;52.490;13.434;2023-09-19T00:42:46;18.60;99.90
20479;DHT22;10398;52.490;13.434;2023-09-19T00:45:14;18.50;99.90
20479;DHT22;10398;52.490;13.434;2023-09-19T00:47:50;18.50;99.90
20479;DHT22;10398;52.490;13.434;2023-09-19T00:50:18;18.50;99.90
20479;DHT22;10398;52.490;13.434;2023-09-19T00:52:46;18.50;99.90
20479;DHT22;10398;52.490;13.434;2023-09-19T00:55:14;18.50;99.90
20479;DHT22;10398;52.490;13.434;2023-09-19T00:57:40;18.50;99.90
20479;DHT22;10398;52.490;13.434;2023-09-19T01:00:07;18.50;99.90
20479;DHT22;10398;52.490;13.434;2023-09-19T01:02:36;18.50;99.90
20479;DHT22;10398;52.490;13.434;2023-09-19T01:05:02;18.60;99.90
20479;DHT22;10398;52.490;13.434;2023-09-19T01:07:31;18.60;99.90
20479;DHT22;10398;52.490;13.434;2023-09-19T01:09:57;18.50;99.90
20479;DHT22;10398;52.490;13.434;2023-09-19T01:12:53;18.60;99.90
20479;DHT22;10398;52.490;13.434;2023-09-19T01:15:55;18.50;99.90
20479;DHT22;10398;52.490;13.434;2023-09-19T01:18:30;18.50;99.90
20479;DHT22;10398;52.490;13.434;2023-09-19T01:21:23;18.60;99.90
20479;DHT22;10398;52.490;13.434;2023-09-19T01:26:55;18.70;99.90
20479;DHT22;10398;52.490;13.434;2023-09-19T01:29:38;18.70;99.90
20479;DHT22;10398;52.490;13.434;2023-09-19T01:32:06;18.70;99.90
20479;DHT22;10398;52.490;13.434;2023-09-19T01:37:12;18.70;99.90
20479;DHT22;10398;52.490;13.434;2023-09-19T01:39:39;18.70;99.90
20479;DHT22;10398;52.490;13.434;2023-09-19T01:42:20;18.60;99.90
20479;DHT22;10398;52.490;13.434;2023-09-19T01:45:03;18.70;99.90
20479;DHT22;10398;52.490;13.434;2023-09-19T01:47:35;18.70;99.90
20479;DHT22;10398;52.490;13.434;2023-09-19T01:50:27;18.80;99.90
20479;DHT22;10398;52.490;13.434;2023-09-19T01:52:59;18.70;99.90
20479;DHT22;10398;52.490;13.434;2023-09-19T01:55:30;18.80;99.90
20479;DHT22;10398;52.490;13.434;2023-09-19T01:58:06;18.80;99.90
20479;DHT22;10398;52.490;13.434;2023-09-19T02:00:37;18.80;99.90
20479;DHT22;10398;52.490;13.434;2023-09-19T02:03:05;18.90;99.90
20479;DHT22;10398;52.490;13.434;2023-09-19T02:05:31;18.80;99.90
20479;DHT22;10398;52.490;13.434;2023-09-19T02:07:58;18.80;99.90
20479;DHT22;10398;52.490;13.434;2023-09-19T02:10:24;18.80;99.90
20479;DHT22;10398;52.490;13.434;2023-09-19T02:12:50;18.80;99.90
20479;DHT22;10398;52.490;13.434;2023-09-19T02:15:16;18.80;99.90
20479;DHT22;10398;52.490;13.434;2023-09-19T02:17:45;18.70;99.90
20479;DHT22;10398;52.490;13.434;2023-09-19T02:20:12;18.70;99.90
20479;DHT22;10398;52.490;13.434;2023-09-19T02:22:41;18.60;99.90
20479;DHT22;10398;52.490;13.434;2023-09-19T02:25:07;18.70;99.90
20479;DHT22;10398;52.490;13.434;2023-09-19T02:27:33;18.60;99.90
20479;DHT22;10398;52.490;13.434;2023-09-19T02:29:59;18.60;99.90
20479;DHT22;10398;52.490;13.434;2023-09-19T02:32:27;18.60;99.90
20479;DHT22;10398;52.490;13.434;2023-09-19T02:34:55;18.60;99.90
20479;DHT22;10398;52.490;13.434;2023-09-19T02:37:21;18.60;99.90
20479;DHT22;10398;52.490;13.434;2023-09-19T02:39:47;18.50;99.90
20479;DHT22;10398;52.490;13.434;2023-09-19T02:42:12;18.60;99.90
20479;DHT22;10398;52.490;13.434;2023-09-19T02:44:38;18.60;99.90
20479;DHT22;10398;52.490;13.434;2023-09-19T02:47:05;18.60;99.90
20479;DHT22;10398;52.490;13.434;2023-09-19T02:49:31;18.60;99.90
20479;DHT22;10398;52.490;13.434;2023-09-19T02:51:56;18.60;99.90
20479;DHT22;10398;52.490;13.434;2023-09-19T02:54:24;18.60;99.90
20479;DHT22;10398;52.490;13.434;2023-09-19T02:56:50;18.60;99.90
20479;DHT22;10398;52.490;13.434;2023-09-19T02:59:15;18.60;99.90
20479;DHT22;10398;52.490;13.434;2023-09-19T03:01:43;18.60;99.90
20479;DHT22;10398;52.490;13.434;2023-09-19T03:04:09;18.60;99.90
20479;DHT22;10398;52.490;13.434;2023-09-19T03:06:37;18.60;99.90
20479;DHT22;10398;52.490;13.434;2023-09-19T03:09:04;18.60;99.90
20479;DHT22;10398;52.490;13.434;2023-09-19T03:11:31;18.60;99.90
20479;DHT22;10398;52.490;13.434;2023-09-19T03:13:57;18.60;99.90
20479;DHT22;10398;52.490;13.434;2023-09-19T03:16:23;18.60;99.90
20479;DHT22;10398;52.490;13.434;2023-09-19T03:18:50;18.60;99.90
20479;DHT22;10398;52.490;13.434;2023-09-19T03:21:16;18.60;99.90
20479;DHT22;10398;52.490;13.434;2023-09-19T03:23:43;18.60;99.90
20479;DHT22;10398;52.490;13.434;2023-09-19T03:26:13;18.50;99.90
20479;DHT22;10398;52.490;13.434;2023-09-19T03:28:42;18.60;99.90
20479;DHT22;10398;52.490;13.434;2023-09-19T03:31:09;18.60;99.90
20479;DHT22;10398;52.490;13.434;2023-09-19T03:33:35;18.70;99.90
20479;DHT22;10398;52.490;13.434;2023-09-19T03:36:01;18.60;99.90
20479;DHT22;10398;52.490;13.434;2023-09-19T03:38:30;18.70;99.90
20479;DHT22;10398;52.490;13.434;2023-09-19T03:40:57;18.70;99.90
20479;DHT22;10398;52.490;13.434;2023-09-19T03:43:22;18.70;99.90
20479;DHT22;10398;52.490;13.434;2023-09-19T03:45:48;18.70;99.90
20479;DHT22;10398;52.490;13.434;2023-09-19T03:48:14;18.60;99.90
20479;DHT22;10398;52.490;13.434;2023-09-19T03:50:40;18.60;99.90
20479;DHT22;10398;52.490;13.434;2023-09-19T03:53:06;18.70;99.90
20479;DHT22;10398;52.490;13.434;2023-09-19T03:55:35;18.60;99.90
20479;DHT22;10398;52.490;13.434;2023-09-19T03:58:01;18.60;99.90
20479;DHT22;10398;52.490;13.434;2023-09-19T04:00:27;18.60;99.90
20479;DHT22;10398;52.490;13.434;2023-09-19T04:02:55;18.60;99.90
20479;DHT22;10398;52.490;13.434;2023-09-19T04:05:22;18.50;99.90
20479;DHT22;10398;52.490;13.434;2023-09-19T04:07:48;18.50;99.90
20479;DHT22;10398;52.490;13.434;2023-09-19T04:10:14;18.50;99.90
20479;DHT22;10398;52.490;13.434;2023-09-19T04:12:40;18.50;99.90
20479;DHT22;10398;52.490;13.434;2023-09-19T04:15:06;18.50;99.90
20479;DHT22;10398;52.490;13.434;2023-09-19T04:17:32;18.50;99.90
20479;DHT22;10398;52.490;13.434;2023-09-19T04:20:01;18.50;99.90
20479;DHT22;10398;52.490;13.434;2023-09-19T04:22:26;18.50;99.90
20479;DHT22;10398;52.490;13.434;2023-09-19T04:24:52;18.50;99.90
20479;DHT22;10398;52.490;13.434;2023-09-19T04:27:17;18.50;99.90
20479;DHT22;10398;52.490;13.434;2023-09-19T04:29:44;18.50;99.90
20479;DHT22;10398;52.490;13.434;2023-09-19T04:32:10;18.50;99.90
20479;DHT22;10398;52.490;13.434;2023-09-19T04:34:36;18.50;99.90
20479;DHT22;10398;52.490;13.434;2023-09-19T04:37:03;18.50;99.90
20479;DHT22;10398;52.490;13.434;2023-09-19T04:39:29;18.50;99.90
20479;DHT22;10398;52.490;13.434;2023-09-19T04:41:55;18.50;99.90
20479;DHT22;10398;52.490;13.434;2023-09-19T04:44:20;18.50;99.90
20479;DHT22;10398;52.490;13.434;2023-09-19T04:46:46;18.50;99.90
20479;DHT22;10398;52.490;13.434;2023-09-19T04:49:12;18.50;99.90
20479;DHT22;10398;52.490;13.434;2023-09-19T04:51:39;18.50;99.90
20479;DHT22;10398;52.490;13.434;2023-09-19T04:54:05;18.50;99.90
20479;DHT22;10398;52.490;13.434;2023-09-19T04:56:31;18.50;99.90
20479;DHT22;10398;52.490;13.434;2023-09-19T04:58:58;18.50;99.90
20479;DHT22;10398;52.490;13.434;2023-09-19T05:01:24;18.50;99.90
20479;DHT22;10398;52.490;13.434;2023-09-19T05:03:50;18.50;99.90
20479;DHT22;10398;52.490;13.434;2023-09-19T05:06:18;18.50;99.90
20479;DHT22;10398;52.490;13.434;2023-09-19T05:08:46;18.40;99.90
20479;DHT22;10398;52.490;13.434;2023-09-19T05:11:14;18.50;99.90
20479;DHT22;10398;52.490;13.434;2023-09-19T05:13:40;18.50;99.90
20479;DHT22;10398;52.490;13.434;2023-09-19T05:16:06;18.50;99.90
20479;DHT22;10398;52.490;13.434;2023-09-19T05:18:35;18.40;99.90
20479;DHT22;10398;52.490;13.434;2023-09-19T05:21:02;18.40;99.90
20479;DHT22;10398;52.490;13.434;2023-09-19T05:23:28;18.40;99.90
20479;DHT22;10398;52.490;13.434;2023-09-19T05:25:54;18.40;99.90
20479;DHT22;10398;52.490;13.434;2023-09-19T05:28:22;18.40;99.90
20479;DHT22;10398;52.490;13.434;2023-09-19T05:30:48;18.30;99.90
20479;DHT22;10398;52.490;13.434;2023-09-19T05:33:14;18.40;99.90
20479;DHT22;10398;52.490;13.434;2023-09-19T05:35:40;18.40;99.90
20479;DHT22;10398;52.490;13.434;2023-09-19T05:38:07;18.30;99.90
20479;DHT22;10398;52.490;13.434;2023-09-19T05:40:38;18.40;99.90
20479;DHT22;10398;52.490;13.434;2023-09-19T05:43:06;18.40;99.90
20479;DHT22;10398;52.490;13.434;2023-09-19T05:45:31;18.40;99.90
20479;DHT22;10398;52.490;13.434;2023-09-19T05:48:08;18.30;99.90
20479;DHT22;10398;52.490;13.434;2023-09-19T05:50:34;18.40;99.90
20479;DHT22;10398;52.490;13.434;2023-09-19T05:52:59;18.30;99.90
20479;DHT22;10398;52.490;13.434;2023-09-19T05:55:25;18.30;99.90
20479;DHT22;10398;52.490;13.434;2023-09-19T05:57:51;18.30;99.90
20479;DHT22;10398;52.490;13.434;2023-09-19T06:00:19;18.20;99.90
20479;DHT22;10398;52.490;13.434;2023-09-19T06:02:50;18.20;99.90
20479;DHT22;10398;52.490;13.434;2023-09-19T06:05:16;18.20;99.90
20479;DHT22;10398;52.490;13.434;2023-09-19T06:07:41;18.10;99.90
20479;DHT22;10398;52.490;13.434;2023-09-19T06:10:07;18.10;99.90
20479;DHT22;10398;52.490;13.434;2023-09-19T06:12:38;18.10;99.90
20479;DHT22;10398;52.490;13.434;2023-09-19T06:15:04;18.10;99.90
20479;DHT22;10398;52.490;13.434;2023-09-19T06:17:47;18.10;99.90
20479;DHT22;10398;52.490;13.434;2023-09-19T06:20:13;18.10;99.90
20479;DHT22;10398;52.490;13.434;2023-09-19T06:22:40;18.10;99.90
20479;DHT22;10398;52.490;13.434;2023-09-19T06:25:07;18.10;99.90
20479;DHT22;10398;52.490;13.434;2023-09-19T06:27:33;18.10;99.90
20479;DHT22;10398;52.490;13.434;2023-09-19T06:30:00;18.10;99.90
20479;DHT22;10398;52.490;13.434;2023-09-19T06:32:27;18.10;99.90
20479;DHT22;10398;52.490;13.434;2023-09-19T06:34:53;18.10;99.90
20479;DHT22;10398;52.490;13.434;2023-09-19T06:37:27;18.10;99.90
20479;DHT22;10398;52.490;13.434;2023-09-19T06:39:53;18.10;99.90
20479;DHT22;10398;52.490;13.434;2023-09-19T06:42:19;18.10;99.90
20479;DHT22;10398;52.490;13.434;2023-09-19T06:44:44;18.10;99.90
20479;DHT22;10398;52.490;13.434;2023-09-19T06:47:10;18.20;99.90
20479;DHT22;10398;52.490;13.434;2023-09-19T06:49:36;18.20;99.90
20479;DHT22;10398;52.490;13.434;2023-09-19T06:52:02;18.20;99.90
20479;DHT22;10398;52.490;13.434;2023-09-19T06:54:28;18.30;99.90
20479;DHT22;10398;52.490;13.434;2023-09-19T06:56:59;18.30;99.90
20479;DHT22;10398;52.490;13.434;2023-09-19T06:59:25;18.20;99.90
20479;DHT22;10398;52.490;13.434;2023-09-19T07:01:50;18.30;99.90
20479;DHT22;10398;52.490;13.434;2023-09-19T07:04:16;18.30;99.90
20479;DHT22;10398;52.490;13.434;2023-09-19T07:06:49;18.30;99.90
20479;DHT22;10398;52.490;13.434;2023-09-19T07:09:15;18.40;99.90
20479;DHT22;10398;52.490;13.434;2023-09-19T07:11:41;18.40;99.90
20479;DHT22;10398;52.490;13.434;2023-09-19T07:14:06;18.50;99.90
20479;DHT22;10398;52.490;13.434;2023-09-19T07:16:32;18.50;99.90
20479;DHT22;10398;52.490;13.434;2023-09-19T07:18:58;18.60;99.90
20479;DHT22;10398;52.490;13.434;2023-09-19T07:21:24;18.80;99.90
20479;DHT22;10398;52.490;13.434;2023-09-19T07:23:49;18.80;99.90
20479;DHT22;10398;52.490;13.434;2023-09-19T07:26:16;18.90;99.90
20479;DHT22;10398;52.490;13.434;2023-09-19T07:28:42;19.00;99.90
20479;DHT22;10398;52.490;13.434;2023-09-19T07:31:08;19.10;99.90
20479;DHT22;10398;52.490;13.434;2023-09-19T07:33:35;19.10;99.90
20479;DHT22;10398;52.490;13.434;2023-09-19T07:36:01;19.10;99.90
20479;DHT22;10398;52.490;13.434;2023-09-19T07:38:27;19.20;99.90
20479;DHT22;10398;52.490;13.434;2023-09-19T07:41:00;19.20;99.90
20479;DHT22;10398;52.490;13.434;2023-09-19T07:43:25;19.20;99.90
20479;DHT22;10398;52.490;13.434;2023-09-19T07:45:52;19.20;99.90
20479;DHT22;10398;52.490;13.434;2023-09-19T07:48:17;19.20;99.90
20479;DHT22;10398;52.490;13.434;2023-09-19T07:50:43;19.20;99.90
20479;DHT22;10398;52.490;13.434;2023-09-19T07:53:09;19.10;99.90
20479;DHT22;10398;52.490;13.434;2023-09-19T07:55:35;19.10;99.90
20479;DHT22;10398;52.490;13.434;2023-09-19T07:58:01;19.20;99.90
20479;DHT22;10398;52.490;13.434;2023-09-19T08:00:29;19.20;99.90
20479;DHT22;10398;52.490;13.434;2023-09-19T08:02:55;19.20;99.90
20479;DHT22;10398;52.490;13.434;2023-09-19T08:05:21;19.30;99.90
20479;DHT22;10398;52.490;13.434;2023-09-19T08:07:48;19.30;99.90
20479;DHT22;10398;52.490;13.434;2023-09-19T08:10:16;19.30;99.90
20479;DHT22;10398;52.490;13.434;2023-09-19T08:12:44;19.40;99.90
20479;DHT22;10398;52.490;13.434;2023-09-19T08:17:39;19.40;99.90
20479;DHT22;10398;52.490;13.434;2023-09-19T08:20:05;19.40;99.90
20479;DHT22;10398;52.490;13.434;2023-09-19T08:22:31;19.50;99.90
20479;DHT22;10398;52.490;13.434;2023-09-19T08:24:57;19.60;99.90
20479;DHT22;10398;52.490;13.434;2023-09-19T08:27:24;19.60;99.90
20479;DHT22;10398;52.490;13.434;2023-09-19T08:29:52;19.60;99.90
20479;DHT22;10398;52.490;13.434;2023-09-19T08:32:18;19.60;99.90
20479;DHT22;10398;52.490;13.434;2023-09-19T08:34:49;19.50;99.90
20479;DHT22;10398;52.490;13.434;2023-09-19T08:37:15;19.40;99.90
20479;DHT22;10398;52.490;13.434;2023-09-19T08:39:44;19.30;99.90
20479;DHT22;10398;52.490;13.434;2023-09-19T08:42:10;19.30;99.90
20479;DHT22;10398;52.490;13.434;2023-09-19T08:44:37;19.40;99.90
20479;DHT22;10398;52.490;13.434;2023-09-19T08:47:15;19.50;99.90
20479;DHT22;10398;52.490;13.434;2023-09-19T08:52:28;19.60;99.90
20479;DHT22;10398;52.490;13.434;2023-09-19T08:54:59;19.60;99.90
20479;DHT22;10398;52.490;13.434;2023-09-19T08:57:33;19.70;99.90
20479;DHT22;10398;52.490;13.434;2023-09-19T09:00:02;19.70;99.90
20479;DHT22;10398;52.490;13.434;2023-09-19T09:02:39;19.80;99.90
20479;DHT22;10398;52.490;13.434;2023-09-19T09:05:10;19.80;99.90
20479;DHT22;10398;52.490;13.434;2023-09-19T09:07:37;19.80;99.90
20479;DHT22;10398;52.490;13.434;2023-09-19T09:10:04;19.90;99.90
20479;DHT22;10398;52.490;13.434;2023-09-19T09:12:30;19.90;99.90
20479;DHT22;10398;52.490;13.434;2023-09-19T09:14:56;19.90;99.90
20479;DHT22;10398;52.490;13.434;2023-09-19T09:17:25;20.00;99.90
20479;DHT22;10398;52.490;13.434;2023-09-19T09:19:54;20.10;99.90
20479;DHT22;10398;52.490;13.434;2023-09-19T09:22:19;20.20;99.90
20479;DHT22;10398;52.490;13.434;2023-09-19T09:24:52;20.20;99.90
20479;DHT22;10398;52.490;13.434;2023-09-19T09:27:23;20.40;99.90
20479;DHT22;10398;52.490;13.434;2023-09-19T09:29:51;20.40;99.90
20479;DHT22;10398;52.490;13.434;2023-09-19T09:32:17;20.60;99.90
20479;DHT22;10398;52.490;13.434;2023-09-19T09:34:51;20.70;99.90
20479;DHT22;10398;52.490;13.434;2023-09-19T09:37:18;20.80;99.90
20479;DHT22;10398;52.490;13.434;2023-09-19T09:39:57;20.80;99.90
20479;DHT22;10398;52.490;13.434;2023-09-19T09:42:34;21.00;99.90
20479;DHT22;10398;52.490;13.434;2023-09-19T09:47:48;21.20;99.90
20479;DHT22;10398;52.490;13.434;2023-09-19T09:50:33;21.10;99.90
20479;DHT22;10398;52.490;13.434;2023-09-19T09:53:26;20.90;99.90
20479;DHT22;10398;52.490;13.434;2023-09-19T09:58:49;20.80;99.90
20479;DHT22;10398;52.490;13.434;2023-09-19T10:01:15;20.90;99.90
20479;DHT22;10398;52.490;13.434;2023-09-19T10:03:42;21.00;99.90
20479;DHT22;10398;52.490;13.434;2023-09-19T10:06:16;21.00;99.90
20479;DHT22;10398;52.490;13.434;2023-09-19T10:09:07;20.90;99.90
20479;DHT22;10398;52.490;13.434;2023-09-19T10:11:44;21.00;99.90
20479;DHT22;10398;52.490;13.434;2023-09-19T10:14:13;21.20;99.90
20479;DHT22;10398;52.490;13.434;2023-09-19T10:16:50;21.30;99.90
20479;DHT22;10398;52.490;13.434;2023-09-19T10:19:30;21.50;99.90
20479;DHT22;10398;52.490;13.434;2023-09-19T10:22:01;21.70;99.90
20479;DHT22;10398;52.490;13.434;2023-09-19T10:24:28;21.90;99.90
20479;DHT22;10398;52.490;13.434;2023-09-19T10:26:55;22.00;99.90
20479;DHT22;10398;52.490;13.434;2023-09-19T10:29:21;22.10;99.90
20479;DHT22;10398;52.490;13.434;2023-09-19T10:31:47;22.20;99.90
20479;DHT22;10398;52.490;13.434;2023-09-19T10:34:17;22.30;99.90
20479;DHT22;10398;52.490;13.434;2023-09-19T10:36:46;22.30;99.90
20479;DHT22;10398;52.490;13.434;2023-09-19T10:39:16;22.40;99.90
20479;DHT22;10398;52.490;13.434;2023-09-19T10:41:50;22.60;99.90
20479;DHT22;10398;52.490;13.434;2023-09-19T10:44:24;22.60;99.90
20479;DHT22;10398;52.490;13.434;2023-09-19T10:46:51;22.70;99.90
20479;DHT22;10398;52.490;13.434;2023-09-19T10:49:19;22.60;99.90
20479;DHT22;10398;52.490;13.434;2023-09-19T10:51:45;22.40;99.90
20479;DHT22;10398;52.490;13.434;2023-09-19T10:54:17;22.40;99.90
20479;DHT22;10398;52.490;13.434;2023-09-19T10:56:48;22.60;99.90
20479;DHT22;10398;52.490;13.434;2023-09-19T10:59:18;22.70;99.90
20479;DHT22;10398;52.490;13.434;2023-09-19T11:07:05;22.90;99.90
20479;DHT22;10398;52.490;13.434;2023-09-19T11:15:03;22.50;99.90
20479;DHT22;10398;52.490;13.434;2023-09-19T11:17:40;22.40;99.90
20479;DHT22;10398;52.490;13.434;2023-09-19T11:30:50;22.40;99.90
20479;DHT22;10398;52.490;13.434;2023-09-19T11:33:30;22.30;99.90
20479;DHT22;10398;52.490;13.434;2023-09-19T11:36:10;22.30;99.90
20479;DHT22;10398;52.490;13.434;2023-09-19T11:49:31;22.10;99.90
20479;DHT22;10398;52.490;13.434;2023-09-19T11:52:01;22.10;99.90
20479;DHT22;10398;52.490;13.434;2023-09-19T11:54:28;22.10;99.90
20479;DHT22;10398;52.490;13.434;2023-09-19T11:56:57;22.00;99.90
20479;DHT22;10398;52.490;13.434;2023-09-19T11:59:25;22.00;99.90
20479;DHT22;10398;52.490;13.434;2023-09-19T12:02:01;22.10;99.90
20479;DHT22;10398;52.490;13.434;2023-09-19T12:04:40;22.10;99.90
20479;DHT22;10398;52.490;13.434;2023-09-19T12:07:10;22.10;99.90
20479;DHT22;10398;52.490;13.434;2023-09-19T12:09:40;22.20;99.90
20479;DHT22;10398;52.490;13.434;2023-09-19T12:12:22;22.20;99.90
20479;DHT22;10398;52.490;13.434;2023-09-19T12:14:51;22.10;99.90
20479;DHT22;10398;52.490;13.434;2023-09-19T12:17:18;22.10;99.90
20479;DHT22;10398;52.490;13.434;2023-09-19T12:19:55;22.00;99.90
20479;DHT22;10398;52.490;13.434;2023-09-19T12:22:20;22.00;99.90
20479;DHT22;10398;52.490;13.434;2023-09-19T12:24:47;22.10;99.90
20479;DHT22;10398;52.490;13.434;2023-09-19T12:27:14;22.10;99.90
20479;DHT22;10398;52.490;13.434;2023-09-19T12:32:08;22.30;99.90
20479;DHT22;10398;52.490;13.434;2023-09-19T12:34:34;22.20;99.90
20479;DHT22;10398;52.490;13.434;2023-09-19T12:37:14;22.30;99.90
20479;DHT22;10398;52.490;13.434;2023-09-19T12:40:09;22.40;99.90
20479;DHT22;10398;52.490;13.434;2023-09-19T12:42:43;22.50;99.90
20479;DHT22;10398;52.490;13.434;2023-09-19T12:45:11;22.60;99.90
20479;DHT22;10398;52.490;13.434;2023-09-19T12:47:39;22.70;99.90
20479;DHT22;10398;52.490;13.434;2023-09-19T12:50:13;22.80;99.90
20479;DHT22;10398;52.490;13.434;2023-09-19T12:52:41;22.80;99.90
20479;DHT22;10398;52.490;13.434;2023-09-19T12:55:06;22.90;99.90
20479;DHT22;10398;52.490;13.434;2023-09-19T12:57:34;22.90;99.90
20479;DHT22;10398;52.490;13.434;2023-09-19T13:00:04;23.00;99.90
20479;DHT22;10398;52.490;13.434;2023-09-19T13:02:36;23.10;99.90
20479;DHT22;10398;52.490;13.434;2023-09-19T13:05:03;23.00;99.90
20479;DHT22;10398;52.490;13.434;2023-09-19T13:07:45;23.00;99.90
20479;DHT22;10398;52.490;13.434;2023-09-19T13:10:15;22.90;99.90
20479;DHT22;10398;52.490;13.434;2023-09-19T13:12:42;22.90;99.90
20479;DHT22;10398;52.490;13.434;2023-09-19T13:15:14;22.80;99.90
20479;DHT22;10398;52.490;13.434;2023-09-19T13:17:46;22.80;99.90
20479;DHT22;10398;52.490;13.434;2023-09-19T13:20:26;22.60;99.90
20479;DHT22;10398;52.490;13.434;2023-09-19T13:22:57;22.50;99.90
20479;DHT22;10398;52.490;13.434;2023-09-19T13:25:34;22.30;99.90
20479;DHT22;10398;52.490;13.434;2023-09-19T13:28:00;22.20;99.90
20479;DHT22;10398;52.490;13.434;2023-09-19T13:30:30;22.20;99.90
20479;DHT22;10398;52.490;13.434;2023-09-19T13:33:10;22.20;99.90
20479;DHT22;10398;52.490;13.434;2023-09-19T13:35:38;22.10;99.90
20479;DHT22;10398;52.490;13.434;2023-09-19T13:38:06;22.00;99.90
20479;DHT22;10398;52.490;13.434;2023-09-19T13:40:35;22.00;99.90
20479;DHT22;10398;52.490;13.434;2023-09-19T13:43:03;22.00;99.90
20479;DHT22;10398;52.490;13.434;2023-09-19T13:45:29;22.00;99.90
20479;DHT22;10398;52.490;13.434;2023-09-19T13:47:56;21.90;99.90
20479;DHT22;10398;52.490;13.434;2023-09-19T13:50:22;21.80;99.90
20479;DHT22;10398;52.490;13.434;2023-09-19T13:52:50;21.80;99.90
20479;DHT22;10398;52.490;13.434;2023-09-19T13:55:17;21.90;99.90
20479;DHT22;10398;52.490;13.434;2023-09-19T13:57:49;21.80;99.90
20479;DHT22;10398;52.490;13.434;2023-09-19T14:00:16;21.80;99.90
20479;DHT22;10398;52.490;13.434;2023-09-19T14:02:42;21.80;99.90
20479;DHT22;10398;52.490;13.434;2023-09-19T14:05:10;21.80;99.90
20479;DHT22;10398;52.490;13.434;2023-09-19T14:07:37;21.80;99.90
20479;DHT22;10398;52.490;13.434;2023-09-19T14:10:04;21.80;99.90
20479;DHT22;10398;52.490;13.434;2023-09-19T14:12:33;21.90;99.90
20479;DHT22;10398;52.490;13.434;2023-09-19T14:14:59;21.90;99.90
20479;DHT22;10398;52.490;13.434;2023-09-19T14:17:25;22.00;99.90
20479;DHT22;10398;52.490;13.434;2023-09-19T14:19:52;22.00;99.90
20479;DHT22;10398;52.490;13.434;2023-09-19T14:22:18;21.90;99.90
20479;DHT22;10398;52.490;13.434;2023-09-19T14:24:43;21.90;99.90
20479;DHT22;10398;52.490;13.434;2023-09-19T14:27:09;21.90;99.90
20479;DHT22;10398;52.490;13.434;2023-09-19T14:29:35;21.90;99.90
20479;DHT22;10398;52.490;13.434;2023-09-19T14:32:01;21.90;99.90
20479;DHT22;10398;52.490;13.434;2023-09-19T14:34:27;22.00;99.90
20479;DHT22;10398;52.490;13.434;2023-09-19T14:36:53;21.90;99.90
20479;DHT22;10398;52.490;13.434;2023-09-19T14:39:20;21.90;99.90
20479;DHT22;10398;52.490;13.434;2023-09-19T14:41:45;21.90;99.90
20479;DHT22;10398;52.490;13.434;2023-09-19T14:44:11;21.80;99.90
20479;DHT22;10398;52.490;13.434;2023-09-19T14:46:37;21.70;99.90
20479;DHT22;10398;52.490;13.434;2023-09-19T14:49:02;21.70;99.90
20479;DHT22;10398;52.490;13.434;2023-09-19T14:51:30;21.70;99.90
20479;DHT22;10398;52.490;13.434;2023-09-19T14:53:56;21.60;99.90
20479;DHT22;10398;52.490;13.434;2023-09-19T14:56:27;21.70;99.90
20479;DHT22;10398;52.490;13.434;2023-09-19T14:58:55;21.70;99.90
20479;DHT22;10398;52.490;13.434;2023-09-19T15:01:21;21.60;99.90
20479;DHT22;10398;52.490;13.434;2023-09-19T15:03:47;21.60;99.90
20479;DHT22;10398;52.490;13.434;2023-09-19T15:06:15;21.50;99.90
20479;DHT22;10398;52.490;13.434;2023-09-19T15:08:43;21.50;99.90
20479;DHT22;10398;52.490;13.434;2023-09-19T15:11:17;21.50;99.90
20479;DHT22;10398;52.490;13.434;2023-09-19T15:13:44;21.50;99.90
20479;DHT22;10398;52.490;13.434;2023-09-19T15:16:10;21.40;99.90
20479;DHT22;10398;52.490;13.434;2023-09-19T15:18:38;21.30;99.90
20479;DHT22;10398;52.490;13.434;2023-09-19T15:21:05;21.40;99.90
20479;DHT22;10398;52.490;13.434;2023-09-19T15:23:32;21.40;99.90
20479;DHT22;10398;52.490;13.434;2023-09-19T15:26:06;21.40;99.90
20479;DHT22;10398;52.490;13.434;2023-09-19T15:28:34;21.40;99.90
20479;DHT22;10398;52.490;13.434;2023-09-19T15:31:03;21.40;99.90
20479;DHT22;10398;52.490;13.434;2023-09-19T15:33:30;21.40;99.90
20479;DHT22;10398;52.490;13.434;2023-09-19T15:36:06;21.40;99.90
20479;DHT22;10398;52.490;13.434;2023-09-19T15:41:13;21.40;99.90
20479;DHT22;10398;52.490;13.434;2023-09-19T15:43:42;21.50;99.90
20479;DHT22;10398;52.490;13.434;2023-09-19T15:46:08;21.50;99.90
20479;DHT22;10398;52.490;13.434;2023-09-19T15:48:33;21.40;99.90
20479;DHT22;10398;52.490;13.434;2023-09-19T15:51:03;21.40;99.90
20479;DHT22;10398;52.490;13.434;2023-09-19T15:53:47;21.40;99.90
20479;DHT22;10398;52.490;13.434;2023-09-19T15:56:14;21.40;99.90
20479;DHT22;10398;52.490;13.434;2023-09-19T15:58:41;21.40;99.90
20479;DHT22;10398;52.490;13.434;2023-09-19T16:01:09;21.40;99.90
20479;DHT22;10398;52.490;13.434;2023-09-19T16:03:39;21.40;99.90
20479;DHT22;10398;52.490;13.434;2023-09-19T16:06:13;21.40;99.90
20479;DHT22;10398;52.490;13.434;2023-09-19T16:08:46;21.30;99.90
20479;DHT22;10398;52.490;13.434;2023-09-19T16:11:12;21.30;99.90
20479;DHT22;10398;52.490;13.434;2023-09-19T16:13:39;21.30;99.90
20479;DHT22;10398;52.490;13.434;2023-09-19T16:16:07;21.20;99.90
20479;DHT22;10398;52.490;13.434;2023-09-19T16:18:33;21.20;99.90